createdAt,value
2019-03-13T00:00:44.056Z,96642.53
2019-03-13T00:02:45.654Z,96647.31
2019-03-13T00:04:47.251Z,96634.58
2019-03-13T00:06:48.855Z,96652.02
2019-03-13T00:08:50.494Z,96646.78
2019-03-13T00:10:52.103Z,96637.80
2019-03-13T00:12:53.715Z,96645.83
2019-03-13T00:14:55.324Z,96644.64
2019-03-13T00:16:56.922Z,96635.19
2019-03-13T00:18:58.545Z,96637.80
2019-03-13T00:21:00.141Z,96662.48
2019-03-13T00:23:01.734Z,96641.39
2019-03-13T00:25:03.329Z,96616.92
2019-03-13T00:27:04.927Z,96632.21
2019-03-13T00:29:06.536Z,96622.81
2019-03-13T00:31:08.162Z,96631.34
2019-03-13T00:33:09.768Z,96659.18
2019-03-13T00:35:11.366Z,96634.97
2019-03-13T00:37:12.968Z,96600.92
2019-03-13T00:39:14.719Z,96606.98
2019-03-13T00:41:16.318Z,96609.57
2019-03-13T00:43:17.903Z,96598.48
2019-03-13T00:45:19.497Z,96598.48
2019-03-13T00:47:21.090Z,96600.09
2019-03-13T00:49:22.749Z,96588.20
2019-03-13T00:51:24.364Z,96567.32
2019-03-13T00:53:25.968Z,96566.52
2019-03-13T00:55:27.562Z,96552.87
2019-03-13T00:57:29.224Z,96544.45
2019-03-13T00:59:30.836Z,96550.04
2019-03-13T01:01:33.247Z,96572.49
2019-03-13T01:03:34.832Z,96589.86
2019-03-13T01:05:38.987Z,96573.20
2019-03-13T01:07:40.586Z,96567.77
2019-03-13T01:09:42.187Z,96556.41
2019-03-13T01:11:43.814Z,96538.95
2019-03-13T01:13:45.424Z,96521.08
2019-03-13T01:15:47.069Z,96481.06
2019-03-13T01:17:48.655Z,96531.13
2019-03-13T01:19:50.264Z,96519.15
2019-03-13T01:21:51.893Z,96521.83
2019-03-13T01:23:53.487Z,96523.97
2019-03-13T01:25:55.108Z,96516.47
2019-03-13T01:27:56.702Z,96510.83
2019-03-13T01:29:58.308Z,96512.08
2019-03-13T01:32:00.402Z,96496.73
2019-03-13T01:34:07.656Z,96505.14
2019-03-13T01:36:09.250Z,96490.52
2019-03-13T01:38:10.855Z,96499.91
2019-03-13T01:40:12.490Z,96496.02
2019-03-13T01:42:14.085Z,96493.25
2019-03-13T01:44:15.730Z,96508.86
2019-03-13T01:46:17.333Z,96521.64
2019-03-13T01:48:18.926Z,96505.59
2019-03-13T01:50:20.536Z,96517.36
2019-03-13T01:52:22.161Z,96525.56
2019-03-13T01:54:23.753Z,96521.77
2019-03-13T01:56:25.349Z,96528.19
2019-03-13T01:58:26.968Z,96523.52
2019-03-13T02:00:28.553Z,96515.39
2019-03-13T02:02:30.164Z,96503.56
2019-03-13T02:04:31.781Z,96503.12
2019-03-13T02:06:33.383Z,96499.34
2019-03-13T02:08:34.977Z,96492.65
2019-03-13T02:10:36.569Z,96485.78
2019-03-13T02:12:38.173Z,96492.65
2019-03-13T02:14:39.820Z,96489.27
2019-03-13T02:16:41.498Z,96479.52
2019-03-13T02:18:43.097Z,96475.67
2019-03-13T02:20:44.689Z,96474.84
2019-03-13T02:22:46.293Z,96464.32
2019-03-13T02:24:47.918Z,96463.48
2019-03-13T02:26:49.523Z,96456.73
2019-03-13T02:28:51.150Z,96459.83
2019-03-13T02:30:52.746Z,96454.16
2019-03-13T02:32:54.363Z,96458.73
2019-03-13T02:34:55.991Z,96459.71
2019-03-13T02:36:57.595Z,96456.86
2019-03-13T02:38:59.231Z,96455.34
2019-03-13T02:41:00.838Z,96447.62
2019-03-13T02:43:02.471Z,96453.17
2019-03-13T02:45:04.106Z,96451.03
2019-03-13T02:47:05.708Z,96456.53
2019-03-13T02:49:07.316Z,96448.27
2019-03-13T02:51:08.901Z,96446.45
2019-03-13T02:53:10.498Z,96437.09
2019-03-13T02:55:12.209Z,96434.09
2019-03-13T02:57:13.809Z,96449.41
2019-03-13T02:59:15.434Z,96466.03
2019-03-13T03:01:22.592Z,96466.80
2019-03-13T03:03:31.731Z,96457.41
2019-03-13T03:05:33.336Z,96466.77
2019-03-13T03:07:34.971Z,96473.59
2019-03-13T03:09:36.577Z,96485.00
2019-03-13T03:11:38.209Z,96485.73
2019-03-13T03:13:39.816Z,96497.66
2019-03-13T03:15:41.420Z,96505.31
2019-03-13T03:17:43.064Z,96480.50
2019-03-13T03:19:44.675Z,96528.33
2019-03-13T03:21:46.312Z,96535.14
2019-03-13T03:23:47.921Z,96535.59
2019-03-13T03:25:49.526Z,96538.02
2019-03-13T03:27:51.131Z,96542.78
2019-03-13T03:29:52.740Z,96544.84
2019-03-13T03:31:54.348Z,96540.94
2019-03-13T03:33:55.961Z,96545.12
2019-03-13T03:35:57.585Z,96544.00
2019-03-13T03:37:59.196Z,96541.23
2019-03-13T03:40:00.794Z,96551.59
2019-03-13T03:42:02.391Z,96555.84
2019-03-13T03:44:04.018Z,96540.08
2019-03-13T03:46:05.627Z,96542.66
2019-03-13T03:48:07.269Z,96545.38
2019-03-13T03:50:08.869Z,96544.24
2019-03-13T03:52:10.480Z,96540.47
2019-03-13T03:54:12.115Z,96539.66
2019-03-13T03:56:14.256Z,96541.23
2019-03-13T03:58:15.900Z,96539.72
2019-03-13T04:00:17.668Z,96540.50
2019-03-13T04:02:19.192Z,96530.95
2019-03-13T04:04:20.804Z,96541.95
2019-03-13T04:06:22.402Z,96536.36
2019-03-13T04:08:23.988Z,96535.11
2019-03-13T04:10:25.596Z,96527.00
2019-03-13T04:12:27.216Z,96532.11
2019-03-13T04:14:28.868Z,96526.76
2019-03-13T04:16:30.474Z,96527.39
2019-03-13T04:18:32.073Z,96533.39
2019-03-13T04:20:33.683Z,96530.86
2019-03-13T04:22:35.293Z,96534.34
2019-03-13T04:24:36.933Z,96549.51
2019-03-13T04:26:38.530Z,96550.31
2019-03-13T04:28:40.126Z,96542.64
2019-03-13T04:30:41.727Z,96537.41
2019-03-13T04:32:43.346Z,96548.86
2019-03-13T04:34:45.164Z,96560.36
2019-03-13T04:36:46.748Z,96567.08
2019-03-13T04:38:48.356Z,96565.69
2019-03-13T04:40:49.954Z,96566.02
2019-03-13T04:42:51.664Z,96558.31
2019-03-13T04:44:53.199Z,96556.55
2019-03-13T04:46:54.795Z,96562.83
2019-03-13T04:48:56.385Z,96575.17
2019-03-13T04:50:58.017Z,96579.81
2019-03-13T04:52:59.635Z,96575.97
2019-03-13T04:55:01.259Z,96581.06
2019-03-13T04:57:02.888Z,96577.77
2019-03-13T04:59:04.502Z,96545.55
2019-03-13T05:01:06.128Z,96578.03
2019-03-13T05:03:07.722Z,96576.98
2019-03-13T05:05:09.321Z,96585.17
2019-03-13T05:07:10.941Z,96582.58
2019-03-13T05:09:12.548Z,96578.98
2019-03-13T05:11:14.164Z,96561.84
2019-03-13T05:13:15.788Z,96594.49
2019-03-13T05:15:17.395Z,96597.31
2019-03-13T05:17:18.997Z,96594.63
2019-03-13T05:19:20.593Z,96611.95
2019-03-13T05:21:22.236Z,96612.76
2019-03-13T05:23:23.848Z,96625.29
2019-03-13T05:25:25.493Z,96635.65
2019-03-13T05:27:27.099Z,96649.41
2019-03-13T05:29:28.703Z,96649.91
2019-03-13T05:31:30.317Z,96648.98
2019-03-13T05:33:31.913Z,96646.63
2019-03-13T05:35:33.522Z,96646.13
2019-03-13T05:37:35.150Z,96646.43
2019-03-13T05:39:36.745Z,96655.48
2019-03-13T05:41:38.356Z,96659.98
2019-03-13T05:43:39.967Z,96666.59
2019-03-13T05:45:41.567Z,96613.41
2019-03-13T05:47:43.199Z,96682.57
2019-03-13T05:49:44.798Z,96681.89
2019-03-13T05:51:46.448Z,96690.81
2019-03-13T05:53:48.045Z,96693.35
2019-03-13T05:55:49.638Z,96697.52
2019-03-13T05:57:51.280Z,96703.13
2019-03-13T05:59:52.900Z,96714.10
2019-03-13T06:01:54.498Z,96711.38
2019-03-13T06:03:56.108Z,96712.92
2019-03-13T06:05:57.696Z,96731.16
2019-03-13T06:07:59.299Z,96734.55
2019-03-13T06:10:00.947Z,96735.42
2019-03-13T06:12:02.548Z,96751.94
2019-03-13T06:14:04.172Z,96744.98
2019-03-13T06:16:05.786Z,96754.44
2019-03-13T06:18:09.764Z,96755.05
2019-03-13T06:20:10.576Z,96769.20
2019-03-13T06:22:10.720Z,96778.61
2019-03-13T06:24:12.313Z,96775.19
2019-03-13T06:26:13.905Z,96777.47
2019-03-13T06:28:15.516Z,96780.97
2019-03-13T06:30:17.109Z,96787.48
2019-03-13T06:32:18.702Z,96783.72
2019-03-13T06:34:20.316Z,96791.17
2019-03-13T06:36:21.928Z,96795.95
2019-03-13T06:38:23.526Z,96800.95
2019-03-13T06:40:25.143Z,96797.17
2019-03-13T06:42:26.738Z,96781.97
2019-03-13T06:44:28.333Z,96797.03
2019-03-13T06:46:29.941Z,96806.76
2019-03-13T06:48:31.537Z,96809.00
2019-03-13T06:50:33.136Z,96815.51
2019-03-13T06:52:34.752Z,96812.97
2019-03-13T06:54:36.357Z,96817.70
2019-03-13T06:56:38.001Z,96812.97
2019-03-13T06:58:40.200Z,96812.62
2019-03-13T07:00:47.271Z,96807.16
2019-03-13T07:02:52.415Z,96802.05
2019-03-13T07:04:57.793Z,96812.11
2019-03-13T07:07:14.258Z,96814.64
2019-03-13T07:09:33.685Z,96813.03
2019-03-13T07:11:35.329Z,96805.30
2019-03-13T07:13:52.735Z,96811.70
2019-03-13T07:15:57.038Z,96812.12
2019-03-13T07:18:13.515Z,96811.05
2019-03-13T07:20:15.138Z,96774.11
2019-03-13T07:22:36.515Z,96822.28
2019-03-13T07:24:39.033Z,96819.53
2019-03-13T07:26:41.113Z,96832.97
2019-03-13T07:28:47.267Z,96831.05
2019-03-13T07:30:53.322Z,96833.05
2019-03-13T07:32:56.591Z,96839.31
2019-03-13T07:35:00.580Z,96845.69
2019-03-13T07:37:04.220Z,96847.34
2019-03-13T07:39:17.529Z,96841.48
2019-03-13T07:41:19.137Z,96849.05
2019-03-13T07:43:35.613Z,96854.69
2019-03-13T07:45:54.866Z,96850.63
2019-03-13T07:48:00.171Z,96853.55
2019-03-13T07:50:03.385Z,96848.02
2019-03-13T07:52:20.776Z,96840.76
2019-03-13T07:54:25.979Z,96849.66
2019-03-13T07:56:46.324Z,96857.69
2019-03-13T07:58:52.545Z,96840.95
2019-03-13T08:00:54.137Z,96838.01
2019-03-13T08:02:58.578Z,96838.67
2019-03-13T08:05:06.647Z,96838.56
2019-03-13T08:07:16.798Z,96849.38
2019-03-13T08:09:34.027Z,96844.80
2019-03-13T08:11:53.406Z,96848.30
2019-03-13T08:13:58.794Z,96852.38
2019-03-13T08:16:03.961Z,96852.28
2019-03-13T08:18:26.476Z,96850.72
2019-03-13T08:20:30.592Z,96847.20
2019-03-13T08:22:34.975Z,96846.75
2019-03-13T08:24:48.431Z,96863.20
2019-03-13T08:27:03.888Z,96851.27
2019-03-13T08:29:06.928Z,96862.03
2019-03-13T08:31:10.207Z,96867.27
2019-03-13T08:33:27.598Z,96867.97
2019-03-13T08:35:31.998Z,96860.87
2019-03-13T08:37:34.336Z,96861.33
2019-03-13T08:39:36.679Z,96863.52
2019-03-13T08:41:58.067Z,96868.44
2019-03-13T08:44:08.086Z,96859.03
2019-03-13T08:46:10.291Z,96864.88
2019-03-13T08:48:26.769Z,96861.47
2019-03-13T08:50:34.073Z,96870.49
2019-03-13T08:52:51.275Z,96863.26
2019-03-13T08:54:58.601Z,96855.99
2019-03-13T08:57:02.675Z,96855.23
2019-03-13T08:59:06.979Z,96854.03
2019-03-13T09:01:24.253Z,96852.22
2019-03-13T09:03:29.492Z,96863.13
2019-03-13T09:05:41.747Z,96862.95
2019-03-13T09:07:53.257Z,96864.62
2019-03-13T09:09:58.305Z,96871.36
2019-03-13T09:12:18.661Z,96859.06
2019-03-13T09:14:38.013Z,96862.42
2019-03-13T09:16:39.620Z,96856.72
2019-03-13T09:18:43.742Z,96869.80
2019-03-13T09:20:51.245Z,96854.52
2019-03-13T09:22:54.380Z,96860.25
2019-03-13T09:24:56.635Z,96859.88
2019-03-13T09:26:58.240Z,96856.40
2019-03-13T09:29:01.541Z,96780.14
2019-03-13T09:31:06.077Z,96858.39
2019-03-13T09:33:10.604Z,96850.33
2019-03-13T09:35:12.220Z,96861.25
2019-03-13T09:37:32.581Z,96854.30
2019-03-13T09:39:39.907Z,96855.99
2019-03-13T09:41:58.254Z,96837.91
2019-03-13T09:44:00.138Z,96852.19
2019-03-13T09:46:04.259Z,96857.20
2019-03-13T09:48:06.793Z,96852.09
2019-03-13T09:50:28.107Z,96858.80
2019-03-13T09:52:32.568Z,96853.33
2019-03-13T09:54:49.938Z,96853.17
2019-03-13T09:57:02.316Z,96850.39
2019-03-13T09:59:04.788Z,96860.33
2019-03-13T10:01:13.010Z,96871.05
2019-03-13T10:03:15.358Z,96868.36
2019-03-13T10:05:33.968Z,96871.58
2019-03-13T10:07:42.056Z,96868.73
2019-03-13T10:10:02.583Z,96866.20
2019-03-13T10:12:18.997Z,96830.36
2019-03-13T10:14:35.477Z,96875.41
2019-03-13T10:16:53.771Z,96835.11
2019-03-13T10:18:58.268Z,96863.31
2019-03-13T10:21:00.868Z,96865.02
2019-03-13T10:23:08.242Z,96851.68
2019-03-13T10:25:21.500Z,96836.08
2019-03-13T10:27:23.862Z,96852.55
2019-03-13T10:29:45.300Z,96860.73
2019-03-13T10:31:48.294Z,96849.61
2019-03-13T10:33:51.322Z,96847.81
2019-03-13T10:36:10.912Z,96842.02
2019-03-13T10:38:29.240Z,96852.61
2019-03-13T10:40:38.511Z,96861.73
2019-03-13T10:42:45.997Z,96853.41
2019-03-13T10:44:47.603Z,96823.71
2019-03-13T10:47:10.264Z,96859.03
2019-03-13T10:49:11.920Z,96860.14
2019-03-13T10:51:22.158Z,96865.45
2019-03-13T10:53:36.664Z,96861.44
2019-03-13T10:55:39.188Z,96857.83
2019-03-13T10:57:56.487Z,96855.71
2019-03-13T11:00:00.648Z,96859.55
2019-03-13T11:02:02.256Z,96853.81
2019-03-13T11:04:06.517Z,96847.61
2019-03-13T11:06:14.055Z,96841.43
2019-03-13T11:08:28.370Z,96839.11
2019-03-13T11:10:30.016Z,96828.02
2019-03-13T11:12:34.478Z,96826.05
2019-03-13T11:14:51.918Z,96815.98
2019-03-13T11:16:55.161Z,96828.42
2019-03-13T11:19:11.696Z,96825.16
2019-03-13T11:21:15.905Z,96839.76
2019-03-13T11:23:17.513Z,96820.34
2019-03-13T11:25:35.817Z,96818.79
2019-03-13T11:27:38.360Z,96812.17
2019-03-13T11:29:52.657Z,96817.87
2019-03-13T11:31:56.940Z,96810.50
2019-03-13T11:34:02.027Z,96802.05
2019-03-13T11:36:18.506Z,96805.19
2019-03-13T11:38:24.020Z,96792.78
2019-03-13T11:40:28.338Z,96806.33
2019-03-13T11:42:32.574Z,96762.87
2019-03-13T11:44:36.843Z,96802.18
2019-03-13T11:46:42.961Z,96808.99
2019-03-13T11:48:45.335Z,96787.59
2019-03-13T11:51:05.836Z,96806.00
2019-03-13T11:53:11.406Z,96801.11
2019-03-13T11:55:33.577Z,96798.30
2019-03-13T11:57:45.924Z,96800.94
2019-03-13T11:59:52.104Z,96806.91
2019-03-13T12:01:55.122Z,96802.60
2019-03-13T12:04:16.496Z,96796.21
2019-03-13T12:06:23.725Z,96795.27
2019-03-13T12:08:44.984Z,96795.24
2019-03-13T12:11:05.507Z,96790.13
2019-03-13T12:15:38.578Z,96791.83
2019-03-13T12:17:55.987Z,96793.97
2019-03-13T12:20:01.269Z,96790.05
2019-03-13T12:22:02.991Z,96785.32
2019-03-13T12:24:21.294Z,96784.52
2019-03-13T12:26:38.605Z,96778.98
2019-03-13T12:28:41.593Z,96774.26
2019-03-13T12:30:59.023Z,96770.70
2019-03-13T12:33:12.308Z,96754.61
2019-03-13T12:35:28.845Z,96766.90
2019-03-13T12:37:33.908Z,96766.90
2019-03-13T12:39:36.239Z,96768.06
2019-03-13T12:41:55.704Z,96766.39
2019-03-13T12:44:01.046Z,96761.65
2019-03-13T12:46:03.827Z,96759.00
2019-03-13T12:48:21.095Z,96757.26
2019-03-13T12:50:23.433Z,96747.14
2019-03-13T12:52:27.540Z,96751.42
2019-03-13T12:54:54.218Z,96748.05
2019-03-13T12:57:12.750Z,96751.53
2019-03-13T12:59:18.564Z,96741.77
2019-03-13T13:01:25.932Z,96747.22
2019-03-13T13:03:27.544Z,96755.00
2019-03-13T13:05:44.021Z,96751.14
2019-03-13T13:08:04.512Z,96742.61
2019-03-13T13:10:21.856Z,96700.58
2019-03-13T13:12:38.348Z,96729.32
2019-03-13T13:14:52.280Z,96725.48
2019-03-13T13:16:57.467Z,96724.27
2019-03-13T13:18:59.065Z,96727.69
2019-03-13T13:21:00.721Z,96720.12
2019-03-13T13:23:02.368Z,96726.66
2019-03-13T13:25:03.966Z,96726.29
2019-03-13T13:27:05.576Z,96723.34
2019-03-13T13:29:07.320Z,96725.13
2019-03-13T13:31:09.017Z,96727.07
2019-03-13T13:33:10.622Z,96731.69
2019-03-13T13:35:12.234Z,96764.91
2019-03-13T13:37:13.843Z,96722.14
2019-03-13T13:39:15.569Z,96729.14
2019-03-13T13:41:17.166Z,96722.97
2019-03-13T13:43:18.781Z,96717.63
2019-03-13T13:45:20.622Z,96712.39
2019-03-13T13:47:22.217Z,96719.03
2019-03-13T13:49:23.808Z,96722.70
2019-03-13T13:51:25.420Z,96719.20
2019-03-13T13:53:27.075Z,96716.05
2019-03-13T13:55:28.674Z,96722.80
2019-03-13T13:57:30.274Z,96728.99
2019-03-13T13:59:31.876Z,96718.61
2019-03-13T14:01:33.496Z,96721.05
2019-03-13T14:03:35.389Z,96726.98
2019-03-13T14:05:37.012Z,96717.70
2019-03-13T14:07:38.673Z,96715.20
2019-03-13T14:09:40.332Z,96703.27
2019-03-13T14:11:41.982Z,96700.41
2019-03-13T14:13:43.652Z,96693.80
2019-03-13T14:15:45.302Z,96695.59
2019-03-13T14:17:46.913Z,96692.34
2019-03-13T14:19:48.504Z,96689.56
2019-03-13T14:21:50.088Z,96690.52
2019-03-13T14:23:51.692Z,96696.83
2019-03-13T14:25:53.289Z,96691.00
2019-03-13T14:27:54.930Z,96692.30
2019-03-13T14:29:56.530Z,96687.81
2019-03-13T14:31:58.134Z,96684.69
2019-03-13T14:33:59.810Z,96691.69
2019-03-13T14:36:01.406Z,96678.05
2019-03-13T14:38:03.042Z,96692.81
2019-03-13T14:40:04.652Z,96686.20
2019-03-13T14:42:06.252Z,96681.92
2019-03-13T14:44:07.885Z,96677.64
2019-03-13T14:46:09.717Z,96676.23
2019-03-13T14:48:11.422Z,96682.45
2019-03-13T14:50:13.636Z,96678.27
2019-03-13T14:52:15.266Z,96670.61
2019-03-13T14:54:16.863Z,96672.93
2019-03-13T14:56:18.463Z,96668.75
2019-03-13T14:58:20.097Z,96664.86
2019-03-13T15:00:21.716Z,96659.00
2019-03-13T15:02:23.329Z,96663.39
2019-03-13T15:04:24.945Z,96662.52
2019-03-13T15:06:26.551Z,96658.97
2019-03-13T15:08:28.212Z,96654.81
2019-03-13T15:10:29.834Z,96657.22
2019-03-13T15:12:31.439Z,96660.50
2019-03-13T15:14:33.043Z,96663.42
2019-03-13T15:16:34.638Z,96662.63
2019-03-13T15:18:36.273Z,96656.54
2019-03-13T15:20:37.878Z,96658.98
2019-03-13T15:22:39.849Z,96646.23
2019-03-13T15:24:41.458Z,96635.69
2019-03-13T15:26:43.062Z,96655.83
2019-03-13T15:28:44.696Z,96653.72
2019-03-13T15:30:46.290Z,96658.72
2019-03-13T15:32:47.924Z,96658.96
2019-03-13T15:34:49.522Z,96658.69
2019-03-13T15:36:51.137Z,96650.71
2019-03-13T15:38:52.756Z,96662.42
2019-03-13T15:40:54.362Z,96663.91
2019-03-13T15:42:55.985Z,96660.95
2019-03-13T15:44:57.600Z,96667.34
2019-03-13T15:46:59.194Z,96668.61
2019-03-13T15:49:00.795Z,96666.36
2019-03-13T15:51:02.408Z,96668.41
2019-03-13T15:53:04.078Z,96666.94
2019-03-13T15:55:05.708Z,96674.50
2019-03-13T15:57:07.311Z,96668.98
2019-03-13T15:59:08.904Z,96675.30
2019-03-13T16:01:10.498Z,96676.66
2019-03-13T16:03:12.123Z,96679.91
2019-03-13T16:05:13.738Z,96670.64
2019-03-13T16:07:15.348Z,96677.84
2019-03-13T16:09:17.718Z,96683.87
2019-03-13T16:11:19.308Z,96677.31
2019-03-13T16:13:20.948Z,96677.06
2019-03-13T16:15:22.558Z,96673.77
2019-03-13T16:17:24.168Z,96668.34
2019-03-13T16:19:25.780Z,96667.48
2019-03-13T16:21:27.392Z,96667.09
2019-03-13T16:23:29.023Z,96662.93
2019-03-13T16:25:30.634Z,96664.36
2019-03-13T16:27:32.233Z,96670.91
2019-03-13T16:29:33.828Z,96666.34
2019-03-13T16:31:35.422Z,96670.25
2019-03-13T16:33:37.105Z,96666.57
2019-03-13T16:35:38.722Z,96664.53
2019-03-13T16:37:40.333Z,96669.28
2019-03-13T16:39:41.985Z,96669.36
2019-03-13T16:41:43.625Z,96668.38
2019-03-13T16:43:45.217Z,96671.78
2019-03-13T16:45:46.828Z,96672.78
2019-03-13T16:47:48.463Z,96661.86
2019-03-13T16:49:50.109Z,96661.55
2019-03-13T16:51:51.718Z,96660.13
2019-03-13T16:53:53.317Z,96655.95
2019-03-13T16:55:54.945Z,96660.52
2019-03-13T16:57:56.593Z,96662.55
2019-03-13T17:00:00.759Z,96665.66
2019-03-13T17:02:00.019Z,96659.05
2019-03-13T17:04:01.604Z,96658.80
2019-03-13T17:06:07.087Z,96745.37
2019-03-13T17:08:09.355Z,96660.61
2019-03-13T17:10:10.950Z,96650.94
2019-03-13T17:12:13.223Z,96661.33
2019-03-13T17:14:14.823Z,96655.97
2019-03-13T17:18:30.448Z,96640.22
2019-03-13T17:20:32.078Z,96654.59
2019-03-13T17:22:33.674Z,96651.17
2019-03-13T17:24:35.325Z,96616.19
2019-03-13T17:26:36.927Z,96649.95
2019-03-13T17:28:38.576Z,96651.86
2019-03-13T17:30:40.196Z,96649.13
2019-03-13T17:32:41.814Z,96651.83
2019-03-13T17:34:43.433Z,96642.75
2019-03-13T17:36:45.030Z,96644.92
2019-03-13T17:38:46.616Z,96632.80
2019-03-13T17:40:48.256Z,96629.71
2019-03-13T17:42:49.854Z,96621.25
2019-03-13T17:44:51.455Z,96622.67
2019-03-13T17:46:53.064Z,96625.24
2019-03-13T17:48:54.666Z,96619.58
2019-03-13T17:50:56.280Z,96621.87
2019-03-13T17:52:57.919Z,96622.97
2019-03-13T17:54:59.505Z,96620.55
2019-03-13T17:57:01.112Z,96622.48
2019-03-13T17:59:02.724Z,96598.33
2019-03-13T18:01:04.364Z,96619.97
2019-03-13T18:03:05.976Z,96620.14
2019-03-13T18:05:07.583Z,96620.80
2019-03-13T18:07:09.177Z,96617.86
2019-03-13T18:09:10.789Z,96622.53
2019-03-13T18:11:12.422Z,96624.27
2019-03-13T18:13:14.012Z,96621.60
2019-03-13T18:15:15.606Z,96615.02
2019-03-13T18:17:17.243Z,96612.45
2019-03-13T18:19:18.847Z,96613.28
2019-03-13T18:21:20.455Z,96606.01
2019-03-13T18:23:22.089Z,96600.34
2019-03-13T18:25:23.714Z,96594.34
2019-03-13T18:27:25.310Z,96571.52
2019-03-13T18:29:26.901Z,96591.20
2019-03-13T18:31:28.502Z,96590.12
2019-03-13T18:33:30.142Z,96591.85
2019-03-13T18:35:31.745Z,96590.84
2019-03-13T18:37:33.355Z,96593.12
2019-03-13T18:39:34.978Z,96593.83
2019-03-13T18:41:36.578Z,96594.81
2019-03-13T18:43:38.210Z,96596.70
2019-03-13T18:45:39.796Z,96590.52
2019-03-13T18:47:41.418Z,96604.08
2019-03-13T18:49:43.045Z,96595.63
2019-03-13T18:51:44.648Z,96596.94
2019-03-13T18:53:46.268Z,96595.54
2019-03-13T18:55:47.897Z,96600.12
2019-03-13T18:57:50.801Z,96574.64
2019-03-13T18:59:51.175Z,96595.94
2019-03-13T19:01:52.767Z,96592.34
2019-03-13T19:03:54.375Z,96591.84
2019-03-13T19:05:56.071Z,96590.23
2019-03-13T19:07:57.641Z,96587.10
2019-03-13T19:09:59.221Z,96580.19
2019-03-13T19:12:00.815Z,96581.28
2019-03-13T19:14:04.036Z,96575.45
2019-03-13T19:16:05.652Z,96581.20
2019-03-13T19:18:07.249Z,96579.83
2019-03-13T19:20:11.773Z,96575.16
2019-03-13T19:22:10.502Z,96578.00
2019-03-13T19:24:12.086Z,96568.88
2019-03-13T19:26:13.688Z,96572.30
2019-03-13T19:28:15.308Z,96571.91
2019-03-13T19:30:16.925Z,96570.43
2019-03-13T19:32:18.521Z,96573.16
2019-03-13T19:34:20.110Z,96575.75
2019-03-13T19:36:21.720Z,96573.57
2019-03-13T19:38:23.322Z,96563.19
2019-03-13T19:40:24.961Z,96557.77
2019-03-13T19:42:26.564Z,96562.27
2019-03-13T19:44:28.206Z,96554.62
2019-03-13T19:46:32.090Z,96560.12
2019-03-13T19:48:32.827Z,96562.70
2019-03-13T19:50:34.470Z,96560.61
2019-03-13T19:52:36.130Z,96556.07
2019-03-13T19:54:37.771Z,96560.04
2019-03-13T19:56:39.754Z,96547.97
2019-03-13T19:58:41.359Z,96553.78
2019-03-13T20:00:43.004Z,96554.81
2019-03-13T20:02:44.592Z,96555.52
2019-03-13T20:04:47.505Z,96543.92
2019-03-13T20:06:47.850Z,96540.58
2019-03-13T20:08:49.798Z,96536.90
2019-03-13T20:10:51.493Z,96540.95
2019-03-13T20:12:53.151Z,96533.25
2019-03-13T20:14:54.750Z,96538.05
2019-03-13T20:16:56.341Z,96522.68
2019-03-13T20:18:57.953Z,96529.92
2019-03-13T20:20:59.566Z,96525.63
2019-03-13T20:23:01.220Z,96531.32
2019-03-13T20:25:02.862Z,96526.31
2019-03-13T20:27:04.501Z,96520.95
2019-03-13T20:29:06.116Z,96526.73
2019-03-13T20:31:07.720Z,96525.07
2019-03-13T20:33:09.469Z,96520.83
2019-03-13T20:35:11.010Z,96524.25
2019-03-13T20:37:12.620Z,96528.22
2019-03-13T20:39:14.214Z,96522.52
2019-03-13T20:41:15.827Z,96528.19
2019-03-13T20:43:17.434Z,96517.52
2019-03-13T20:45:19.070Z,96524.47
2019-03-13T20:47:20.662Z,96535.17
2019-03-13T20:49:22.254Z,96524.35
2019-03-13T20:51:23.847Z,96529.05
2019-03-13T20:53:25.446Z,96528.31
2019-03-13T20:55:27.060Z,96526.56
2019-03-13T20:57:28.645Z,96485.69
2019-03-13T20:59:32.573Z,96520.66
2019-03-13T21:01:31.952Z,96519.77
2019-03-13T21:03:33.546Z,96526.56
2019-03-13T21:05:35.155Z,96512.56
2019-03-13T21:07:36.753Z,96517.33
2019-03-13T21:09:38.378Z,96510.22
2019-03-13T21:11:40.009Z,96512.52
2019-03-13T21:13:41.616Z,96494.16
2019-03-13T21:15:43.915Z,96504.44
2019-03-13T21:17:44.914Z,96509.14
2019-03-13T21:19:46.525Z,96509.80
2019-03-13T21:21:48.181Z,96516.91
2019-03-13T21:23:49.792Z,96514.11
2019-03-13T21:25:51.386Z,96506.23
2019-03-13T21:27:53.027Z,96513.18
2019-03-13T21:29:54.631Z,96505.30
2019-03-13T21:31:58.699Z,96499.05
2019-03-13T21:34:00.296Z,96498.06
2019-03-13T21:36:01.894Z,96494.45
2019-03-13T21:38:03.535Z,96499.34
2019-03-13T21:40:05.134Z,96504.92
2019-03-13T21:42:06.769Z,96495.22
2019-03-13T21:44:08.367Z,96500.80
2019-03-13T21:46:09.967Z,96496.95
2019-03-13T21:48:11.611Z,96454.01
2019-03-13T21:50:13.213Z,96502.11
2019-03-13T21:52:14.819Z,96501.08
2019-03-13T21:54:16.407Z,96504.23
2019-03-13T21:56:18.011Z,96460.38
2019-03-13T21:58:19.689Z,96505.88
2019-03-13T22:00:21.292Z,96500.38
2019-03-13T22:02:32.210Z,96494.36
2019-03-13T22:04:24.807Z,96499.80
2019-03-13T22:06:29.125Z,96501.44
2019-03-13T22:08:27.838Z,96498.19
2019-03-13T22:10:29.447Z,96498.48
2019-03-13T22:12:31.061Z,96501.47
2019-03-13T22:14:32.648Z,96508.85
2019-03-13T22:16:34.242Z,96505.59
2019-03-13T22:18:35.864Z,96504.44
2019-03-13T22:20:37.475Z,96501.81
2019-03-13T22:22:39.088Z,96510.79
2019-03-13T22:24:40.698Z,96502.03
2019-03-13T22:26:42.371Z,96506.16
2019-03-13T22:28:43.971Z,96510.77
2019-03-13T22:30:45.584Z,96508.67
2019-03-13T22:32:47.185Z,96518.61
2019-03-13T22:34:48.778Z,96517.45
2019-03-13T22:36:50.373Z,96514.42
2019-03-13T22:38:51.985Z,96515.58
2019-03-13T22:40:53.596Z,96514.06
2019-03-13T22:42:55.190Z,96512.61
2019-03-13T22:44:56.786Z,96506.12
2019-03-13T22:46:58.395Z,96505.97
2019-03-13T22:48:59.993Z,96503.74
2019-03-13T22:51:02.518Z,96502.70
2019-03-13T22:53:03.304Z,96500.14
2019-03-13T22:55:04.938Z,96505.58
2019-03-13T22:57:06.589Z,96504.27
2019-03-13T22:59:08.190Z,96495.64
2019-03-13T23:01:09.786Z,96495.08
2019-03-13T23:03:11.431Z,96498.59
2019-03-13T23:05:13.025Z,96495.11
2019-03-13T23:07:14.649Z,96500.23
2019-03-13T23:09:16.302Z,96496.45
2019-03-13T23:11:19.597Z,96498.14
2019-03-13T23:13:21.201Z,96494.87
2019-03-13T23:15:22.817Z,96496.09
2019-03-13T23:17:24.436Z,96494.34
2019-03-13T23:19:26.049Z,96487.11
2019-03-13T23:21:27.699Z,96484.70
2019-03-13T23:23:29.445Z,96487.77
2019-03-13T23:25:31.041Z,96488.95
2019-03-13T23:27:32.638Z,96488.48
2019-03-13T23:29:34.243Z,96492.80
2019-03-13T23:31:35.867Z,96488.57
2019-03-13T23:33:37.464Z,96491.12
2019-03-13T23:35:39.065Z,96481.08
2019-03-13T23:37:40.702Z,96484.83
2019-03-13T23:39:42.310Z,96477.73
2019-03-13T23:41:43.953Z,96481.56
2019-03-13T23:43:45.564Z,96481.68
2019-03-13T23:45:47.176Z,96486.80
2019-03-13T23:47:48.820Z,96492.45
2019-03-13T23:49:50.414Z,96484.36
2019-03-13T23:51:52.064Z,96496.31
2019-03-13T23:53:53.681Z,96485.70
2019-03-13T23:55:55.299Z,96487.31
2019-03-13T23:57:56.951Z,96494.45
